createdAt,value
2018-06-02T00:00:49.435Z,0
2018-06-02T00:01:59.595Z,0
2018-06-02T00:03:09.946Z,0
2018-06-02T00:04:20.330Z,0
2018-06-02T00:05:30.165Z,0
2018-06-02T00:06:40.304Z,0
2018-06-02T00:07:50.219Z,0
2018-06-02T00:09:00.397Z,0
2018-06-02T00:10:10.551Z,0
2018-06-02T00:11:20.806Z,0
2018-06-02T00:12:31.208Z,0
2018-06-02T00:13:41.487Z,0
2018-06-02T00:14:51.695Z,0
2018-06-02T00:16:01.897Z,0
2018-06-02T00:17:11.527Z,0
2018-06-02T00:18:21.742Z,0
2018-06-02T00:19:31.879Z,0
2018-06-02T00:20:42.073Z,0
2018-06-02T00:21:51.859Z,0
2018-06-02T00:23:01.984Z,0
2018-06-02T00:24:12.132Z,0
2018-06-02T00:25:22.368Z,0
2018-06-02T00:26:32.585Z,0
2018-06-02T00:27:42.589Z,0
2018-06-02T00:28:52.757Z,0
2018-06-02T00:30:02.942Z,0
2018-06-02T00:31:13.123Z,0
2018-06-02T00:32:23.359Z,0
2018-06-02T00:33:33.509Z,0
2018-06-02T00:34:43.638Z,0
2018-06-02T00:35:53.788Z,0
2018-06-02T00:37:04.189Z,0
2018-06-02T00:38:14.738Z,0
2018-06-02T00:39:24.615Z,0
2018-06-02T00:40:34.815Z,0
2018-06-02T00:41:45.023Z,0
2018-06-02T00:42:55.199Z,0
2018-06-02T00:44:05.469Z,0
2018-06-02T00:45:15.635Z,0
2018-06-02T00:46:25.848Z,0
2018-06-02T00:47:35.987Z,0
2018-06-02T00:48:46.155Z,0
2018-06-02T00:49:56.313Z,0
2018-06-02T00:51:05.638Z,0
2018-06-02T00:52:15.546Z,0
2018-06-02T00:53:25.689Z,0
2018-06-02T00:54:35.839Z,0
2018-06-02T00:55:45.998Z,0
2018-06-02T00:56:56.205Z,0
2018-06-02T00:58:06.362Z,0
2018-06-02T00:59:16.534Z,0
2018-06-02T01:00:26.675Z,0
2018-06-02T01:01:37.025Z,0
2018-06-02T01:02:47.195Z,0
2018-06-02T01:03:57.337Z,0
2018-06-02T01:05:07.914Z,0
2018-06-02T01:06:19.473Z,0
2018-06-02T01:07:29.904Z,0
2018-06-02T01:08:40.063Z,0
2018-06-02T01:09:50.221Z,0
2018-06-02T01:11:00.393Z,0
2018-06-02T01:12:11.214Z,0
2018-06-02T01:13:21.478Z,0
2018-06-02T01:14:31.719Z,0
2018-06-02T01:15:41.630Z,0
2018-06-02T01:16:51.789Z,0
2018-06-02T01:18:02.387Z,0
2018-06-02T01:19:12.790Z,0
2018-06-02T01:20:22.910Z,0
2018-06-02T01:21:33.101Z,0
2018-06-02T01:22:44.548Z,0
2018-06-02T01:23:54.931Z,0
2018-06-02T01:25:05.365Z,0
2018-06-02T01:26:15.359Z,0
2018-06-02T01:27:26.328Z,0
2018-06-02T01:28:36.505Z,0
2018-06-02T01:29:47.292Z,0
2018-06-02T01:30:57.424Z,0
2018-06-02T01:32:07.584Z,0
2018-06-02T01:33:17.210Z,0
2018-06-02T01:34:27.828Z,0
2018-06-02T01:35:38.168Z,0
2018-06-02T01:36:48.271Z,0
2018-06-02T01:37:59.757Z,0
2018-06-02T01:39:11.031Z,0
2018-06-02T01:40:21.210Z,0
2018-06-02T01:41:31.814Z,0
2018-06-02T01:42:41.965Z,0
2018-06-02T01:43:52.755Z,0
2018-06-02T01:45:03.929Z,0
2018-06-02T01:46:14.070Z,0
2018-06-02T01:47:24.424Z,0
2018-06-02T01:48:34.772Z,0
2018-06-02T01:49:45.399Z,0
2018-06-02T01:50:55.526Z,0
2018-06-02T01:52:05.358Z,0
2018-06-02T01:53:15.790Z,0
2018-06-02T01:54:26.143Z,0
2018-06-02T01:55:36.245Z,0
2018-06-02T01:56:46.443Z,0
2018-06-02T01:57:56.938Z,0
2018-06-02T01:59:07.574Z,0
2018-06-02T02:00:18.520Z,0
2018-06-02T02:01:29.650Z,0
2018-06-02T02:02:40.185Z,0
2018-06-02T02:03:51.030Z,0
2018-06-02T02:05:01.787Z,0
2018-06-02T02:06:12.754Z,0
2018-06-02T02:07:23.704Z,0
2018-06-02T02:08:34.027Z,0
2018-06-02T02:09:44.281Z,0
2018-06-02T02:10:53.983Z,0
2018-06-02T02:12:03.937Z,0
2018-06-02T02:13:14.412Z,0
2018-06-02T02:14:25.768Z,0
2018-06-02T02:15:37.505Z,0
2018-06-02T02:16:48.942Z,0
2018-06-02T02:17:59.092Z,4
2018-06-02T02:19:10.030Z,4
2018-06-02T02:20:20.361Z,0
2018-06-02T02:21:30.240Z,0
2018-06-02T02:22:41.085Z,4
2018-06-02T02:23:51.863Z,4
2018-06-02T02:25:02.253Z,4
2018-06-02T02:26:13.482Z,4
2018-06-02T02:27:23.633Z,8
2018-06-02T02:28:33.852Z,4
2018-06-02T02:29:44.015Z,8
2018-06-02T02:30:54.161Z,8
2018-06-02T02:32:03.859Z,8
2018-06-02T02:33:13.689Z,8
2018-06-02T02:34:25.307Z,12
2018-06-02T02:35:41.427Z,12
2018-06-02T02:36:52.036Z,16
2018-06-02T02:38:02.300Z,20
2018-06-02T02:39:12.510Z,20
2018-06-02T02:40:22.701Z,24
2018-06-02T02:41:32.882Z,28
2018-06-02T02:42:43.041Z,28
2018-06-02T02:43:53.441Z,36
2018-06-02T02:45:03.677Z,40
2018-06-02T02:46:13.852Z,44
2018-06-02T02:47:25.007Z,52
2018-06-02T02:48:35.189Z,56
2018-06-02T02:49:45.316Z,64
2018-06-02T02:50:55.257Z,72
2018-06-02T02:52:05.506Z,80
2018-06-02T02:53:15.687Z,88
2018-06-02T02:54:25.839Z,92
2018-06-02T02:55:35.993Z,104
2018-06-02T02:56:46.125Z,112
2018-06-02T02:57:56.342Z,124
2018-06-02T02:59:06.485Z,132
2018-06-02T03:00:16.635Z,148
2018-06-02T03:01:26.773Z,160
2018-06-02T03:02:36.917Z,168
2018-06-02T03:03:47.048Z,184
2018-06-02T03:04:57.058Z,200
2018-06-02T03:06:07.210Z,212
2018-06-02T03:07:17.387Z,232
2018-06-02T03:08:27.578Z,248
2018-06-02T03:09:37.916Z,268
2018-06-02T03:10:48.112Z,288
2018-06-02T03:11:57.990Z,312
2018-06-02T03:13:08.141Z,332
2018-06-02T03:14:18.276Z,356
2018-06-02T03:15:28.455Z,376
2018-06-02T03:16:38.673Z,400
2018-06-02T03:17:48.813Z,428
2018-06-02T03:18:58.946Z,448
2018-06-02T03:20:09.329Z,472
2018-06-02T03:21:19.511Z,500
2018-06-02T03:22:29.646Z,524
2018-06-02T03:23:39.838Z,548
2018-06-02T03:24:49.671Z,572
2018-06-02T03:25:59.939Z,604
2018-06-02T03:27:10.100Z,628
2018-06-02T03:28:20.260Z,648
2018-06-02T03:29:30.635Z,668
2018-06-02T03:30:40.864Z,696
2018-06-02T03:31:51.063Z,732
2018-06-02T03:33:01.268Z,736
2018-06-02T03:34:11.473Z,760
2018-06-02T03:35:21.721Z,748
2018-06-02T03:36:31.909Z,756
2018-06-02T03:37:42.183Z,688
2018-06-02T03:38:52.405Z,712
2018-06-02T03:40:02.660Z,772
2018-06-02T03:41:12.865Z,756
2018-06-02T03:42:23.030Z,760
2018-06-02T03:43:33.360Z,840
2018-06-02T03:44:43.548Z,956
2018-06-02T03:45:53.359Z,1012
2018-06-02T03:47:03.508Z,988
2018-06-02T03:48:13.722Z,980
2018-06-02T03:49:23.984Z,956
2018-06-02T03:50:33.894Z,864
2018-06-02T03:51:43.712Z,796
2018-06-02T03:52:53.836Z,824
2018-06-02T03:54:04.007Z,964
2018-06-02T03:55:14.150Z,896
2018-06-02T03:56:24.369Z,896
2018-06-02T03:57:34.254Z,1012
2018-06-02T03:58:44.397Z,1244
2018-06-02T03:59:54.538Z,1396
2018-06-02T04:01:04.689Z,1276
2018-06-02T04:02:14.893Z,1280
2018-06-02T04:03:24.865Z,1444
2018-06-02T04:04:34.991Z,1540
2018-06-02T04:05:45.138Z,1640
2018-06-02T04:06:55.303Z,1700
2018-06-02T04:08:05.195Z,1788
2018-06-02T04:09:15.345Z,1976
2018-06-02T04:10:25.516Z,2216
2018-06-02T04:11:35.748Z,2364
2018-06-02T04:12:45.955Z,2372
2018-06-02T04:13:55.836Z,2436
2018-06-02T04:15:06.014Z,2532
2018-06-02T04:16:15.904Z,2588
2018-06-02T04:17:26.041Z,2648
2018-06-02T04:18:36.199Z,2704
2018-06-02T04:19:46.365Z,2616
2018-06-02T04:20:56.648Z,2616
2018-06-02T04:22:06.825Z,2716
2018-06-02T04:23:17.011Z,2664
2018-06-02T04:24:27.204Z,2464
2018-06-02T04:25:37.450Z,2280
2018-06-02T04:26:47.594Z,2112
2018-06-02T04:27:57.898Z,1984
2018-06-02T04:29:07.754Z,2048
2018-06-02T04:30:17.920Z,2280
2018-06-02T04:31:28.163Z,2424
2018-06-02T04:32:38.315Z,2248
2018-06-02T04:33:48.500Z,2132
2018-06-02T04:34:58.651Z,2164
2018-06-02T04:36:08.830Z,2232
2018-06-02T04:37:19.051Z,2196
2018-06-02T04:38:29.208Z,2260
2018-06-02T04:39:39.357Z,2440
2018-06-02T04:40:49.501Z,2468
2018-06-02T04:41:59.631Z,2340
2018-06-02T04:43:09.787Z,2376
2018-06-02T04:44:19.970Z,2328
2018-06-02T04:45:29.909Z,2280
2018-06-02T04:46:40.060Z,2280
2018-06-02T04:47:50.222Z,2384
2018-06-02T04:49:00.366Z,2544
2018-06-02T04:50:09.808Z,2676
2018-06-02T04:51:19.959Z,2764
2018-06-02T04:52:30.149Z,2844
2018-06-02T04:53:40.321Z,3044
2018-06-02T04:54:50.480Z,3060
2018-06-02T04:56:00.365Z,3052
2018-06-02T04:57:10.515Z,3096
2018-06-02T04:58:20.709Z,2988
2018-06-02T04:59:30.605Z,3048
2018-06-02T05:00:40.749Z,3052
2018-06-02T05:01:50.900Z,3028
2018-06-02T05:03:00.776Z,2884
2018-06-02T05:04:10.954Z,2940
2018-06-02T05:05:21.093Z,3004
2018-06-02T05:06:30.984Z,3124
2018-06-02T05:07:41.122Z,2864
2018-06-02T05:08:51.292Z,2852
2018-06-02T05:10:01.059Z,2908
2018-06-02T05:11:10.945Z,2904
2018-06-02T05:12:21.092Z,2824
2018-06-02T05:13:31.266Z,2952
2018-06-02T05:14:41.412Z,2896
2018-06-02T05:15:51.578Z,2748
2018-06-02T05:17:01.846Z,2628
2018-06-02T05:18:12.018Z,2556
2018-06-02T05:19:22.165Z,2592
2018-06-02T05:20:32.405Z,2444
2018-06-02T05:21:41.829Z,2388
2018-06-02T05:22:51.978Z,2216
2018-06-02T05:24:02.155Z,2236
2018-06-02T05:25:12.403Z,2228
2018-06-02T05:26:22.580Z,2364
2018-06-02T05:27:32.469Z,2272
2018-06-02T05:28:42.614Z,2316
2018-06-02T05:29:52.777Z,2588
2018-06-02T05:31:02.945Z,2616
2018-06-02T05:32:13.164Z,2616
2018-06-02T05:33:23.516Z,2620
2018-06-02T05:34:33.738Z,2792
2018-06-02T05:35:43.893Z,2788
2018-06-02T05:36:54.090Z,3000
2018-06-02T05:38:04.295Z,3144
2018-06-02T05:39:14.528Z,3160
2018-06-02T05:40:24.741Z,3740
2018-06-02T05:41:35.015Z,4176
2018-06-02T05:42:45.200Z,3760
2018-06-02T05:43:55.378Z,3732
2018-06-02T05:45:05.640Z,3872
2018-06-02T05:46:16.897Z,3596
2018-06-02T05:47:27.073Z,3664
2018-06-02T05:48:37.199Z,4352
2018-06-02T05:49:47.558Z,5380
2018-06-02T05:50:57.791Z,5284
2018-06-02T05:52:07.959Z,4396
2018-06-02T05:53:18.200Z,3852
2018-06-02T05:54:28.415Z,3784
2018-06-02T05:55:38.631Z,3624
2018-06-02T05:56:48.883Z,3284
2018-06-02T05:57:59.108Z,3328
2018-06-02T05:59:09.296Z,3276
2018-06-02T06:00:19.618Z,2912
2018-06-02T06:01:30.870Z,3104
2018-06-02T06:02:41.067Z,3592
2018-06-02T06:03:51.232Z,3868
2018-06-02T06:05:01.449Z,3792
2018-06-02T06:06:11.359Z,4220
2018-06-02T06:07:21.498Z,5040
2018-06-02T06:08:31.656Z,5384
2018-06-02T06:09:41.824Z,6276
2018-06-02T06:10:52.114Z,6768
2018-06-02T06:12:02.335Z,6832
2018-06-02T06:13:12.590Z,7052
2018-06-02T06:14:22.756Z,6732
2018-06-02T06:15:32.986Z,6632
2018-06-02T06:16:43.174Z,6200
2018-06-02T06:17:53.331Z,5444
2018-06-02T06:19:03.477Z,4976
2018-06-02T06:20:13.639Z,4916
2018-06-02T06:21:23.825Z,4372
2018-06-02T06:22:34.009Z,3756
2018-06-02T06:23:44.133Z,3660
2018-06-02T06:24:54.305Z,3764
2018-06-02T06:26:04.490Z,4892
2018-06-02T06:27:14.684Z,5040
2018-06-02T06:28:24.881Z,4940
2018-06-02T06:29:34.801Z,4300
2018-06-02T06:30:44.973Z,4120
2018-06-02T06:31:55.154Z,3808
2018-06-02T06:33:05.129Z,4040
2018-06-02T06:34:15.467Z,3832
2018-06-02T06:35:25.635Z,3068
2018-06-02T06:36:35.829Z,3708
2018-06-02T06:37:46.015Z,3864
2018-06-02T06:38:56.159Z,3860
2018-06-02T06:40:06.366Z,3616
2018-06-02T06:41:16.176Z,3112
2018-06-02T06:42:26.324Z,3196
2018-06-02T06:43:36.540Z,3808
2018-06-02T06:44:47.088Z,3832
2018-06-02T06:45:57.317Z,4028
2018-06-02T06:47:07.451Z,4480
2018-06-02T06:48:17.695Z,4732
2018-06-02T06:49:28.009Z,4860
2018-06-02T06:50:38.307Z,3996
2018-06-02T06:51:48.521Z,2696
2018-06-02T06:52:58.673Z,2408
2018-06-02T06:54:08.846Z,2248
2018-06-02T06:55:19.037Z,2124
2018-06-02T06:56:28.952Z,2112
2018-06-02T06:57:39.194Z,2112
2018-06-02T06:58:49.213Z,1952
2018-06-02T06:59:59.416Z,1952
2018-06-02T07:01:09.335Z,1996
2018-06-02T07:02:19.521Z,2096
2018-06-02T07:03:29.439Z,3028
2018-06-02T07:04:39.615Z,3412
2018-06-02T07:05:49.772Z,3560
2018-06-02T07:06:59.928Z,4372
2018-06-02T07:08:10.099Z,4748
2018-06-02T07:09:20.256Z,5412
2018-06-02T07:10:30.463Z,6072
2018-06-02T07:11:40.667Z,6072
2018-06-02T07:12:50.878Z,6300
2018-06-02T07:14:01.067Z,6040
2018-06-02T07:15:11.268Z,6256
2018-06-02T07:16:21.187Z,5652
2018-06-02T07:17:31.326Z,5184
2018-06-02T07:18:41.526Z,4816
2018-06-02T07:19:51.775Z,4840
2018-06-02T07:21:01.964Z,4732
2018-06-02T07:22:12.215Z,3972
2018-06-02T07:23:22.373Z,3288
2018-06-02T07:24:32.743Z,2888
2018-06-02T07:25:42.928Z,3024
2018-06-02T07:26:53.139Z,3020
2018-06-02T07:28:03.314Z,2992
2018-06-02T07:29:13.554Z,3144
2018-06-02T07:30:23.697Z,3564
2018-06-02T07:31:33.991Z,4320
2018-06-02T07:32:44.193Z,5400
2018-06-02T07:33:54.253Z,6388
2018-06-02T07:35:04.421Z,5780
2018-06-02T07:36:14.722Z,6052
2018-06-02T07:37:24.610Z,5796
2018-06-02T07:38:34.869Z,5116
2018-06-02T07:39:45.122Z,5140
2018-06-02T07:40:55.298Z,4712
2018-06-02T07:42:05.207Z,4648
2018-06-02T07:43:15.344Z,4064
2018-06-02T07:44:25.759Z,4052
2018-06-02T07:45:35.938Z,3648
2018-06-02T07:46:46.093Z,3300
2018-06-02T07:47:56.252Z,4168
2018-06-02T07:49:06.433Z,4768
2018-06-02T07:50:16.651Z,5648
2018-06-02T07:51:26.812Z,5192
2018-06-02T07:52:36.972Z,4368
2018-06-02T07:53:47.158Z,3872
2018-06-02T07:54:57.409Z,3584
2018-06-02T07:56:07.614Z,4160
2018-06-02T07:57:17.270Z,5064
2018-06-02T07:58:27.534Z,6060
2018-06-02T07:59:37.448Z,7288
2018-06-02T08:00:47.385Z,7876
2018-06-02T08:01:57.568Z,8144
2018-06-02T08:03:07.748Z,8160
2018-06-02T08:04:17.886Z,8408
2018-06-02T08:05:28.030Z,8276
2018-06-02T08:06:38.226Z,7940
2018-06-02T08:07:48.448Z,8812
2018-06-02T08:08:58.606Z,8364
2018-06-02T08:10:08.895Z,6732
2018-06-02T08:11:19.058Z,5652
2018-06-02T08:12:29.260Z,4772
2018-06-02T08:13:39.083Z,3720
2018-06-02T08:14:48.598Z,2700
2018-06-02T08:15:58.781Z,2420
2018-06-02T08:17:08.937Z,2436
2018-06-02T08:18:18.847Z,2296
2018-06-02T08:19:28.873Z,2340
2018-06-02T08:20:39.070Z,2804
2018-06-02T08:21:49.262Z,3132
2018-06-02T08:22:59.304Z,3940
2018-06-02T08:24:09.591Z,4268
2018-06-02T08:25:19.737Z,4368
2018-06-02T08:26:29.893Z,4208
2018-06-02T08:27:40.288Z,4116
2018-06-02T08:28:50.434Z,3708
2018-06-02T08:30:00.741Z,3384
2018-06-02T08:31:10.936Z,2888
2018-06-02T08:32:21.114Z,2676
2018-06-02T08:33:31.439Z,2708
2018-06-02T08:34:41.852Z,3000
2018-06-02T08:35:52.000Z,3444
2018-06-02T08:37:02.161Z,3920
2018-06-02T08:38:12.311Z,4220
2018-06-02T08:39:22.474Z,4344
2018-06-02T08:40:32.375Z,4652
2018-06-02T08:41:42.161Z,5276
2018-06-02T08:42:52.325Z,5832
2018-06-02T08:44:02.325Z,6176
2018-06-02T08:45:12.544Z,6384
2018-06-02T08:46:23.035Z,6556
2018-06-02T08:47:33.214Z,6764
2018-06-02T08:48:43.391Z,7212
2018-06-02T08:49:53.534Z,8336
2018-06-02T08:51:03.701Z,9140
2018-06-02T08:52:13.887Z,9768
2018-06-02T08:53:24.049Z,9740
2018-06-02T08:54:34.459Z,9020
2018-06-02T08:55:44.611Z,7768
2018-06-02T08:56:54.856Z,6504
2018-06-02T08:58:05.082Z,4996
2018-06-02T08:59:15.389Z,4372
2018-06-02T09:00:25.563Z,3500
2018-06-02T09:01:35.849Z,2516
2018-06-02T09:02:46.005Z,1852
2018-06-02T09:03:56.180Z,1464
2018-06-02T09:05:06.393Z,1320
2018-06-02T09:06:16.317Z,1352
2018-06-02T09:07:26.476Z,1544
2018-06-02T09:08:36.690Z,1508
2018-06-02T09:09:46.845Z,1472
2018-06-02T09:10:57.041Z,1628
2018-06-02T09:12:07.213Z,1780
2018-06-02T09:13:17.472Z,1728
2018-06-02T09:14:27.684Z,1784
2018-06-02T09:15:38.340Z,2176
2018-06-02T09:16:48.614Z,2196
2018-06-02T09:17:58.798Z,2304
2018-06-02T09:19:09.036Z,2184
2018-06-02T09:20:19.202Z,2016
2018-06-02T09:21:29.448Z,2300
2018-06-02T09:22:39.627Z,3168
2018-06-02T09:23:49.960Z,2512
2018-06-02T09:24:59.913Z,2604
2018-06-02T09:26:10.120Z,3112
2018-06-02T09:27:20.296Z,2316
2018-06-02T09:28:31.449Z,2120
2018-06-02T09:29:41.624Z,1896
2018-06-02T09:30:51.836Z,2128
2018-06-02T09:32:02.038Z,2536
2018-06-02T09:33:12.228Z,3184
2018-06-02T09:34:22.584Z,4256
2018-06-02T09:35:32.927Z,4064
2018-06-02T09:36:43.086Z,3640
2018-06-02T09:37:53.313Z,3004
2018-06-02T09:39:03.490Z,3176
2018-06-02T09:40:13.638Z,3460
2018-06-02T09:41:23.804Z,3116
2018-06-02T09:42:34.072Z,2996
2018-06-02T09:43:44.082Z,2740
2018-06-02T09:44:54.314Z,2748
2018-06-02T09:46:04.511Z,2564
2018-06-02T09:47:14.901Z,2824
2018-06-02T09:48:24.877Z,3188
2018-06-02T09:49:35.049Z,3652
2018-06-02T09:50:45.219Z,4140
2018-06-02T09:51:55.372Z,5128
2018-06-02T09:53:05.531Z,6600
2018-06-02T09:54:15.715Z,7560
2018-06-02T09:55:25.632Z,8076
2018-06-02T09:56:35.438Z,8204
2018-06-02T09:57:45.851Z,8808
2018-06-02T09:58:56.185Z,9456
2018-06-02T10:00:06.468Z,8592
2018-06-02T10:01:16.694Z,7516
2018-06-02T10:02:26.856Z,7808
2018-06-02T10:03:37.047Z,6564
2018-06-02T10:04:47.106Z,5820
2018-06-02T10:05:57.388Z,4764
2018-06-02T10:07:07.590Z,5700
2018-06-02T10:08:17.824Z,4732
2018-06-02T10:09:28.056Z,4756
2018-06-02T10:10:38.534Z,3748
2018-06-02T10:11:48.508Z,3852
2018-06-02T10:12:58.415Z,4444
2018-06-02T10:14:08.625Z,5128
2018-06-02T10:15:18.834Z,5684
2018-06-02T10:16:29.034Z,6080
2018-06-02T10:17:38.934Z,7168
2018-06-02T10:18:49.132Z,9408
2018-06-02T10:19:59.096Z,11896
2018-06-02T10:21:09.310Z,14616
2018-06-02T10:22:19.533Z,16032
2018-06-02T10:23:29.761Z,16576
2018-06-02T10:24:40.090Z,16832
2018-06-02T10:25:50.335Z,18336
2018-06-02T10:27:00.577Z,17632
2018-06-02T10:28:10.764Z,16832
2018-06-02T10:29:20.981Z,16064
2018-06-02T10:30:31.184Z,16736
2018-06-02T10:31:41.372Z,16928
2018-06-02T10:32:51.630Z,16352
2018-06-02T10:34:01.799Z,18720
2018-06-02T10:35:12.108Z,20640
2018-06-02T10:36:22.252Z,18464
2018-06-02T10:37:32.448Z,14572
2018-06-02T10:38:42.684Z,13860
2018-06-02T10:39:52.932Z,17888
2018-06-02T10:41:03.204Z,22880
2018-06-02T10:42:13.366Z,24096
2018-06-02T10:43:23.532Z,23840
2018-06-02T10:44:33.934Z,25536
2018-06-02T10:45:44.166Z,25056
2018-06-02T10:46:54.373Z,23552
2018-06-02T10:48:05.505Z,23552
2018-06-02T10:49:15.764Z,24032
2018-06-02T10:50:25.692Z,23584
2018-06-02T10:51:35.959Z,22400
2018-06-02T10:52:46.157Z,23872
2018-06-02T10:53:56.360Z,25984
2018-06-02T10:55:06.522Z,29632
2018-06-02T10:56:16.723Z,24320
2018-06-02T10:57:26.967Z,21600
2018-06-02T10:58:37.146Z,27104
2018-06-02T10:59:47.340Z,47488
2018-06-02T11:00:57.521Z,34464
2018-06-02T11:02:07.677Z,27616
2018-06-02T11:03:17.877Z,30144
2018-06-02T11:04:28.170Z,38240
2018-06-02T11:05:38.325Z,21344
2018-06-02T11:06:48.524Z,34816
2018-06-02T11:07:58.797Z,26720
2018-06-02T11:09:09.141Z,17760
2018-06-02T11:10:19.388Z,15744
2018-06-02T11:11:29.551Z,12812
2018-06-02T11:12:39.722Z,12120
2018-06-02T11:13:49.947Z,15584
2018-06-02T11:15:00.102Z,17024
2018-06-02T11:16:10.294Z,39232
2018-06-02T11:17:20.552Z,58048
2018-06-02T11:18:30.768Z,21120
2018-06-02T11:19:41.031Z,17408
2018-06-02T11:20:51.237Z,16128
2018-06-02T11:22:01.459Z,15776
2018-06-02T11:23:11.638Z,18752
2018-06-02T11:24:21.835Z,19136
2018-06-02T11:25:32.151Z,15904
2018-06-02T11:26:42.433Z,12748
2018-06-02T11:27:52.593Z,13440
2018-06-02T11:29:03.122Z,14404
2018-06-02T11:30:13.430Z,15008
2018-06-02T11:31:24.180Z,14348
2018-06-02T11:32:34.197Z,14816
2018-06-02T11:33:44.413Z,16608
2018-06-02T11:34:54.601Z,17792
2018-06-02T11:36:04.403Z,18688
2018-06-02T11:37:14.824Z,19264
2018-06-02T11:38:25.035Z,22528
2018-06-02T11:39:35.253Z,41728
2018-06-02T11:40:45.173Z,44032
2018-06-02T11:41:55.340Z,55744
2018-06-02T11:43:05.492Z,38944
2018-06-02T11:44:16.037Z,24896
2018-06-02T11:45:26.318Z,41152
2018-06-02T11:46:36.210Z,20768
2018-06-02T11:47:46.453Z,27200
2018-06-02T11:48:56.613Z,23488
2018-06-02T11:50:06.808Z,26848
2018-06-02T11:51:17.061Z,41376
2018-06-02T11:52:27.259Z,27776
2018-06-02T11:53:37.457Z,19296
2018-06-02T11:54:47.661Z,18208
2018-06-02T11:55:57.905Z,19520
2018-06-02T11:57:08.108Z,14560
2018-06-02T11:58:18.262Z,14248
2018-06-02T11:59:28.419Z,16800
2018-06-02T12:00:38.639Z,19584
2018-06-02T12:01:49.916Z,12496
2018-06-02T12:03:00.128Z,10528
2018-06-02T12:04:10.378Z,10704
2018-06-02T12:05:20.620Z,12680
2018-06-02T12:06:30.787Z,15680
2018-06-02T12:07:41.021Z,15776
2018-06-02T12:08:51.252Z,12424
2018-06-02T12:10:01.537Z,13536
2018-06-02T12:11:11.732Z,21248
2018-06-02T12:12:21.931Z,31136
2018-06-02T12:13:32.106Z,24864
2018-06-02T12:14:42.353Z,13596
2018-06-02T12:15:52.584Z,9356
2018-06-02T12:17:02.764Z,7960
2018-06-02T12:18:12.954Z,8312
2018-06-02T12:19:23.116Z,8284
2018-06-02T12:20:33.568Z,10084
2018-06-02T12:21:43.851Z,11064
2018-06-02T12:22:54.076Z,11616
2018-06-02T12:24:04.219Z,11868
2018-06-02T12:25:14.406Z,12872
2018-06-02T12:26:24.634Z,13732
2018-06-02T12:27:34.549Z,13024
2018-06-02T12:28:44.763Z,13044
2018-06-02T12:29:54.954Z,13040
2018-06-02T12:31:05.163Z,13128
2018-06-02T12:32:15.110Z,13576
2018-06-02T12:33:25.034Z,15104
2018-06-02T12:34:35.247Z,17632
2018-06-02T12:35:45.434Z,18304
2018-06-02T12:36:55.703Z,16288
2018-06-02T12:38:05.908Z,15168
2018-06-02T12:39:16.086Z,15552
2018-06-02T12:40:26.472Z,16736
2018-06-02T12:41:36.368Z,18400
2018-06-02T12:42:46.688Z,22240
2018-06-02T12:43:56.862Z,25728
2018-06-02T12:45:06.673Z,23424
2018-06-02T12:46:17.008Z,18208
2018-06-02T12:47:27.219Z,13468
2018-06-02T12:48:37.447Z,11276
2018-06-02T12:49:47.627Z,9768
2018-06-02T12:50:57.905Z,9732
2018-06-02T12:52:08.126Z,11000
2018-06-02T12:53:18.402Z,12108
2018-06-02T12:54:28.592Z,11164
2018-06-02T12:55:38.800Z,11224
2018-06-02T12:56:48.971Z,12852
2018-06-02T12:57:59.221Z,12716
2018-06-02T12:59:10.041Z,11064
2018-06-02T13:00:20.198Z,9664
2018-06-02T13:01:30.370Z,9580
2018-06-02T13:02:40.598Z,13256
2018-06-02T13:03:50.494Z,16000
2018-06-02T13:05:00.426Z,18848
2018-06-02T13:06:10.698Z,17376
2018-06-02T13:07:20.975Z,13168
2018-06-02T13:08:31.145Z,12164
2018-06-02T13:09:41.411Z,12292
2018-06-02T13:10:51.646Z,13000
2018-06-02T13:12:01.847Z,13632
2018-06-02T13:13:12.016Z,12044
2018-06-02T13:14:22.225Z,10076
2018-06-02T13:15:32.013Z,8504
2018-06-02T13:16:42.201Z,8432
2018-06-02T13:17:52.385Z,9660
2018-06-02T13:19:02.567Z,10808
2018-06-02T13:20:12.464Z,11600
2018-06-02T13:21:22.811Z,11580
2018-06-02T13:22:32.973Z,11156
2018-06-02T13:23:43.124Z,11760
2018-06-02T13:24:53.329Z,12352
2018-06-02T13:26:03.154Z,12484
2018-06-02T13:27:13.335Z,12288
2018-06-02T13:28:23.241Z,12360
2018-06-02T13:29:33.461Z,12284
2018-06-02T13:30:43.266Z,12064
2018-06-02T13:31:53.442Z,12080
2018-06-02T13:33:03.633Z,12184
2018-06-02T13:34:13.805Z,12008
2018-06-02T13:35:23.986Z,11920
2018-06-02T13:36:34.178Z,10976
2018-06-02T13:37:44.341Z,10616
2018-06-02T13:38:54.522Z,11692
2018-06-02T13:40:04.725Z,11908
2018-06-02T13:41:14.972Z,12764
2018-06-02T13:42:25.143Z,13740
2018-06-02T13:43:35.363Z,14156
2018-06-02T13:44:45.274Z,13768
2018-06-02T13:45:55.071Z,14416
2018-06-02T13:47:05.267Z,13528
2018-06-02T13:48:15.470Z,12120
2018-06-02T13:49:25.664Z,11268
2018-06-02T13:50:35.867Z,10756
2018-06-02T13:51:46.058Z,10004
2018-06-02T13:52:55.845Z,9616
2018-06-02T13:54:06.001Z,10440
2018-06-02T13:55:16.197Z,10764
2018-06-02T13:56:25.992Z,9424
2018-06-02T13:57:36.299Z,8180
2018-06-02T13:58:46.532Z,7760
2018-06-02T13:59:56.686Z,7852
2018-06-02T14:01:06.868Z,7972
2018-06-02T14:02:17.118Z,8248
2018-06-02T14:03:27.301Z,8744
2018-06-02T14:04:37.480Z,8036
2018-06-02T14:05:47.769Z,7060
2018-06-02T14:06:57.986Z,6404
2018-06-02T14:08:08.200Z,6336
2018-06-02T14:09:18.420Z,6916
2018-06-02T14:10:28.627Z,7064
2018-06-02T14:11:38.884Z,6636
2018-06-02T14:12:49.048Z,5824
2018-06-02T14:13:59.239Z,5268
2018-06-02T14:15:09.423Z,5644
2018-06-02T14:16:19.683Z,7072
2018-06-02T14:17:29.588Z,7388
2018-06-02T14:18:40.258Z,7960
2018-06-02T14:19:50.440Z,8828
2018-06-02T14:21:00.608Z,9212
2018-06-02T14:22:10.835Z,9228
2018-06-02T14:23:20.992Z,9044
2018-06-02T14:24:31.213Z,8616
2018-06-02T14:25:41.542Z,7676
2018-06-02T14:26:51.777Z,6772
2018-06-02T14:28:01.915Z,6100
2018-06-02T14:29:12.125Z,6324
2018-06-02T14:30:22.303Z,6948
2018-06-02T14:31:32.505Z,7212
2018-06-02T14:32:42.774Z,6800
2018-06-02T14:33:52.983Z,5692
2018-06-02T14:35:03.136Z,4680
2018-06-02T14:36:13.303Z,4104
2018-06-02T14:37:23.227Z,4684
2018-06-02T14:38:33.087Z,4956
2018-06-02T14:39:43.229Z,5224
2018-06-02T14:40:53.384Z,5572
2018-06-02T14:42:03.568Z,6064
2018-06-02T14:43:13.768Z,6592
2018-06-02T14:44:23.939Z,7068
2018-06-02T14:45:34.228Z,7528
2018-06-02T14:46:44.459Z,7888
2018-06-02T14:47:54.630Z,8204
2018-06-02T14:49:04.812Z,8800
2018-06-02T14:50:15.093Z,9028
2018-06-02T14:51:25.368Z,9072
2018-06-02T14:52:34.913Z,9032
2018-06-02T14:53:45.085Z,8836
2018-06-02T14:54:55.263Z,8540
2018-06-02T14:56:05.466Z,8540
2018-06-02T14:57:16.608Z,8140
2018-06-02T14:58:26.841Z,7548
2018-06-02T14:59:37.050Z,7280
2018-06-02T15:00:47.223Z,6812
2018-06-02T15:01:57.428Z,6172
2018-06-02T15:03:07.579Z,5588
2018-06-02T15:04:17.796Z,5460
2018-06-02T15:05:27.599Z,5256
2018-06-02T15:06:37.776Z,4924
2018-06-02T15:07:48.014Z,4752
2018-06-02T15:08:58.341Z,4516
2018-06-02T15:10:09.480Z,4324
2018-06-02T15:11:19.215Z,4052
2018-06-02T15:12:29.478Z,4228
2018-06-02T15:13:39.653Z,4680
2018-06-02T15:14:49.864Z,4452
2018-06-02T15:16:00.030Z,3756
2018-06-02T15:17:09.661Z,3192
2018-06-02T15:18:19.871Z,2800
2018-06-02T15:19:30.137Z,2620
2018-06-02T15:20:40.359Z,2588
2018-06-02T15:21:50.535Z,2728
2018-06-02T15:23:00.704Z,2968
2018-06-02T15:24:11.092Z,3032
2018-06-02T15:25:21.315Z,2776
2018-06-02T15:26:31.595Z,2716
2018-06-02T15:27:41.416Z,2580
2018-06-02T15:28:51.564Z,2664
2018-06-02T15:30:01.779Z,3020
2018-06-02T15:31:12.032Z,3332
2018-06-02T15:32:22.261Z,3596
2018-06-02T15:33:32.420Z,3708
2018-06-02T15:34:42.599Z,3768
2018-06-02T15:35:52.776Z,3892
2018-06-02T15:37:02.952Z,4008
2018-06-02T15:38:13.168Z,3896
2018-06-02T15:39:23.350Z,3776
2018-06-02T15:40:33.528Z,3680
2018-06-02T15:41:43.713Z,3588
2018-06-02T15:42:53.896Z,3580
2018-06-02T15:44:04.102Z,3612
2018-06-02T15:45:15.259Z,3772
2018-06-02T15:46:25.012Z,4164